LIMF/TRN METAR and TAF weather

Enter ICAO airport designator
Station Type Date Time Source
LIMF METAR 2019/04/23 03:50 UTC NOAA

LIMF 230350Z 31006KT 9999 -RA BKN040 11/08 Q1004


Station Type Date Time Source
LIMF Decoded METAR 2019/04/23 03:50 UTC NOAA

Torino / Caselle, Italy (LIMF) 45-13N 007-39E 287M
Apr 22, 2019 - 11:50 PM EDT / 2019.04.23 0350 UTC
Wind: from the NW (310 degrees) at 7 MPH (6 KT):0
Visibility: greater than 7 mile(s):0
Sky conditions: mostly cloudy
Weather: light rain
Temperature: 51 F (11 C)
Dew Point: 46 F (8 C)
Relative Humidity: 81%
Pressure (altimeter): 29.65 in. Hg (1004 hPa)
ob: LIMF 230350Z 31006KT 9999 -RA BKN040 11/08 Q1004
cycle: 4

Station Type Date Time Source
LIMF TAF 2019/04/22 18:21 UTC NOAA

TAF LIMF 221700Z 2218/2318 07008KT 6000 RA BKN020 BKN060

Example: see airport list